sensor_id;sensor_type;location;lat;lon;timestamp;pressure;altitude;pressure_sealevel;temperature;humidity
42945;BME280;28584;42.636;23.294;2023-01-25T00:01:24;110943.53;;;-0.53;100.00
42945;BME280;28584;42.636;23.294;2023-01-25T00:03:50;110996.06;;;-0.64;100.00
42945;BME280;28584;42.636;23.294;2023-01-25T00:06:15;111020.28;;;-0.64;100.00
42945;BME280;28584;42.636;23.294;2023-01-25T00:08:40;111157.72;;;-0.64;100.00
42945;BME280;28584;42.636;23.294;2023-01-25T00:11:06;111151.47;;;-0.63;100.00
42945;BME280;28584;42.636;23.294;2023-01-25T00:13:31;111227.97;;;-0.60;100.00
42945;BME280;28584;42.636;23.294;2023-01-25T00:16:01;111134.63;;;-0.58;100.00
42945;BME280;28584;42.636;23.294;2023-01-25T00:18:26;111253.78;;;-0.65;100.00
42945;BME280;28584;42.636;23.294;2023-01-25T00:20:52;111350.78;;;-0.65;100.00
42945;BME280;28584;42.636;23.294;2023-01-25T00:23:17;111327.69;;;-0.60;100.00
42945;BME280;28584;42.636;23.294;2023-01-25T00:25:42;111418.59;;;-0.56;100.00
42945;BME280;28584;42.636;23.294;2023-01-25T00:28:08;111484.34;;;-0.52;100.00
42945;BME280;28584;42.636;23.294;2023-01-25T00:30:33;111526.56;;;-0.53;100.00
42945;BME280;28584;42.636;23.294;2023-01-25T00:33:32;111549.97;;;-0.52;100.00
42945;BME280;28584;42.636;23.294;2023-01-25T00:35:55;111600.63;;;-0.62;100.00
42945;BME280;28584;42.636;23.294;2023-01-25T00:38:33;111735.47;;;-0.61;100.00
42945;BME280;28584;42.636;23.294;2023-01-25T00:40:59;111757.25;;;-0.56;100.00
42945;BME280;28584;42.636;23.294;2023-01-25T00:43:25;111795.22;;;-0.52;100.00
42945;BME280;28584;42.636;23.294;2023-01-25T00:45:50;111858.09;;;-0.53;100.00
42945;BME280;28584;42.636;23.294;2023-01-25T00:48:16;111810.81;;;-0.46;100.00
42945;BME280;28584;42.636;23.294;2023-01-25T00:50:41;111955.63;;;-0.44;100.00
42945;BME280;28584;42.636;23.294;2023-01-25T00:53:07;112080.50;;;-0.45;100.00
42945;BME280;28584;42.636;23.294;2023-01-25T00:55:32;111984.59;;;-0.56;100.00
42945;BME280;28584;42.636;23.294;2023-01-25T00:57:57;112128.94;;;-0.61;100.00
42945;BME280;28584;42.636;23.294;2023-01-25T01:00:23;112171.41;;;-0.57;100.00
42945;BME280;28584;42.636;23.294;2023-01-25T01:02:49;112265.13;;;-0.53;100.00
42945;BME280;28584;42.636;23.294;2023-01-25T01:05:14;112324.53;;;-0.51;100.00
42945;BME280;28584;42.636;23.294;2023-01-25T01:07:39;112511.97;;;-0.56;100.00
42945;BME280;28584;42.636;23.294;2023-01-25T01:10:05;112656.00;;;-0.53;100.00
42945;BME280;28584;42.636;23.294;2023-01-25T01:12:31;112725.28;;;-0.52;100.00
42945;BME280;28584;42.636;23.294;2023-01-25T01:14:56;112753.69;;;-0.57;100.00
42945;BME280;28584;42.636;23.294;2023-01-25T01:17:22;112957.97;;;-0.53;100.00
42945;BME280;28584;42.636;23.294;2023-01-25T01:19:47;113027.84;;;-0.56;100.00
42945;BME280;28584;42.636;23.294;2023-01-25T01:22:12;113272.00;;;-0.59;100.00
42945;BME280;28584;42.636;23.294;2023-01-25T01:24:38;113397.31;;;-0.66;100.00
42945;BME280;28584;42.636;23.294;2023-01-25T01:27:03;113603.94;;;-0.66;100.00
42945;BME280;28584;42.636;23.294;2023-01-25T01:29:29;113725.81;;;-0.70;100.00
42945;BME280;28584;42.636;23.294;2023-01-25T01:31:54;113820.06;;;-0.72;100.00
42945;BME280;28584;42.636;23.294;2023-01-25T01:34:20;113950.16;;;-0.74;100.00
42945;BME280;28584;42.636;23.294;2023-01-25T01:36:46;114095.44;;;-0.77;100.00
42945;BME280;28584;42.636;23.294;2023-01-25T01:39:12;114238.19;;;-0.79;100.00
42945;BME280;28584;42.636;23.294;2023-01-25T01:41:37;114392.69;;;-0.80;100.00
42945;BME280;28584;42.636;23.294;2023-01-25T01:44:03;114533.38;;;-0.84;100.00
42945;BME280;28584;42.636;23.294;2023-01-25T01:46:34;114707.97;;;-0.81;100.00
42945;BME280;28584;42.636;23.294;2023-01-25T01:49:24;114880.72;;;-0.80;100.00
42945;BME280;28584;42.636;23.294;2023-01-25T01:52:10;115119.28;;;-0.85;100.00
42945;BME280;28584;42.636;23.294;2023-01-25T01:54:40;115423.28;;;-0.91;100.00
42945;BME280;28584;42.636;23.294;2023-01-25T01:57:14;115591.56;;;-0.89;100.00
42945;BME280;28584;42.636;23.294;2023-01-25T01:59:57;115724.09;;;-0.86;100.00
42945;BME280;28584;42.636;23.294;2023-01-25T02:02:25;115945.63;;;-0.83;100.00
42945;BME280;28584;42.636;23.294;2023-01-25T02:04:53;116194.94;;;-0.81;100.00
42945;BME280;28584;42.636;23.294;2023-01-25T02:07:32;116324.06;;;-0.77;100.00
42945;BME280;28584;42.636;23.294;2023-01-25T02:10:00;116463.38;;;-0.77;100.00
42945;BME280;28584;42.636;23.294;2023-01-25T02:12:26;116599.97;;;-0.85;100.00
42945;BME280;28584;42.636;23.294;2023-01-25T02:14:53;116773.69;;;-0.90;100.00
42945;BME280;28584;42.636;23.294;2023-01-25T02:17:23;116891.09;;;-0.86;100.00
42945;BME280;28584;42.636;23.294;2023-01-25T02:20:02;116981.75;;;-0.94;100.00
42945;BME280;28584;42.636;23.294;2023-01-25T02:22:46;116999.63;;;-0.94;100.00
42945;BME280;28584;42.636;23.294;2023-01-25T02:25:12;117057.38;;;-0.99;100.00
42945;BME280;28584;42.636;23.294;2023-01-25T02:27:49;117046.16;;;-1.02;100.00
42945;BME280;28584;42.636;23.294;2023-01-25T02:30:15;116991.22;;;-1.03;100.00
42945;BME280;28584;42.636;23.294;2023-01-25T02:32:40;117044.75;;;-1.06;100.00
42945;BME280;28584;42.636;23.294;2023-01-25T02:35:06;117150.66;;;-1.07;100.00
42945;BME280;28584;42.636;23.294;2023-01-25T02:37:31;117113.34;;;-1.04;100.00
42945;BME280;28584;42.636;23.294;2023-01-25T02:39:57;117224.16;;;-1.02;100.00
42945;BME280;28584;42.636;23.294;2023-01-25T02:42:22;117351.63;;;-1.16;100.00
42945;BME280;28584;42.636;23.294;2023-01-25T02:44:48;117204.25;;;-1.15;100.00
42945;BME280;28584;42.636;23.294;2023-01-25T02:47:14;117077.81;;;-1.19;100.00
42945;BME280;28584;42.636;23.294;2023-01-25T02:49:39;116875.38;;;-1.21;100.00
42945;BME280;28584;42.636;23.294;2023-01-25T02:52:05;116723.97;;;-1.24;100.00
42945;BME280;28584;42.636;23.294;2023-01-25T02:54:30;116625.97;;;-1.24;100.00
42945;BME280;28584;42.636;23.294;2023-01-25T02:56:56;116561.47;;;-1.23;100.00
42945;BME280;28584;42.636;23.294;2023-01-25T02:59:21;116438.06;;;-1.18;100.00
42945;BME280;28584;42.636;23.294;2023-01-25T03:01:48;116450.94;;;-1.23;100.00
42945;BME280;28584;42.636;23.294;2023-01-25T03:04:13;116322.91;;;-1.19;100.00
42945;BME280;28584;42.636;23.294;2023-01-25T03:06:39;116266.09;;;-1.21;100.00
42945;BME280;28584;42.636;23.294;2023-01-25T03:09:07;116252.22;;;-1.17;100.00
42945;BME280;28584;42.636;23.294;2023-01-25T03:11:32;116206.78;;;-1.21;100.00
42945;BME280;28584;42.636;23.294;2023-01-25T03:13:58;116089.13;;;-1.20;100.00
42945;BME280;28584;42.636;23.294;2023-01-25T03:16:24;116026.38;;;-1.19;100.00
42945;BME280;28584;42.636;23.294;2023-01-25T03:18:52;115933.56;;;-1.21;100.00
42945;BME280;28584;42.636;23.294;2023-01-25T03:21:18;115800.31;;;-1.16;100.00
42945;BME280;28584;42.636;23.294;2023-01-25T03:23:46;115712.84;;;-1.11;100.00
42945;BME280;28584;42.636;23.294;2023-01-25T03:26:17;115656.44;;;-1.10;100.00
42945;BME280;28584;42.636;23.294;2023-01-25T03:28:43;115626.78;;;-1.10;100.00
42945;BME280;28584;42.636;23.294;2023-01-25T03:31:11;115598.69;;;-1.12;100.00
42945;BME280;28584;42.636;23.294;2023-01-25T03:33:37;115502.84;;;-1.17;100.00
42945;BME280;28584;42.636;23.294;2023-01-25T03:36:03;115401.38;;;-1.16;100.00
42945;BME280;28584;42.636;23.294;2023-01-25T03:38:29;115204.97;;;-1.13;100.00
42945;BME280;28584;42.636;23.294;2023-01-25T03:40:55;114986.03;;;-1.11;100.00
42945;BME280;28584;42.636;23.294;2023-01-25T03:43:20;114750.63;;;-1.03;100.00
42945;BME280;28584;42.636;23.294;2023-01-25T03:45:51;114548.13;;;-0.97;100.00
42945;BME280;28584;42.636;23.294;2023-01-25T03:48:16;114283.34;;;-0.95;100.00
42945;BME280;28584;42.636;23.294;2023-01-25T03:50:42;114035.91;;;-0.99;100.00
42945;BME280;28584;42.636;23.294;2023-01-25T03:53:22;113815.16;;;-0.96;100.00
42945;BME280;28584;42.636;23.294;2023-01-25T03:56:00;113434.66;;;-0.92;100.00
42945;BME280;28584;42.636;23.294;2023-01-25T03:58:27;113268.13;;;-0.96;100.00
42945;BME280;28584;42.636;23.294;2023-01-25T04:00:58;113004.06;;;-0.96;100.00
42945;BME280;28584;42.636;23.294;2023-01-25T04:03:24;112683.78;;;-0.91;100.00
42945;BME280;28584;42.636;23.294;2023-01-25T04:05:51;112479.13;;;-0.90;100.00
42945;BME280;28584;42.636;23.294;2023-01-25T04:08:16;112254.06;;;-0.85;100.00
42945;BME280;28584;42.636;23.294;2023-01-25T04:10:42;112217.44;;;-0.81;100.00
42945;BME280;28584;42.636;23.294;2023-01-25T04:13:08;112084.03;;;-0.89;100.00
42945;BME280;28584;42.636;23.294;2023-01-25T04:15:34;112052.38;;;-0.93;100.00
42945;BME280;28584;42.636;23.294;2023-01-25T04:17:59;112200.03;;;-1.01;100.00
42945;BME280;28584;42.636;23.294;2023-01-25T04:20:25;112056.13;;;-1.04;100.00
42945;BME280;28584;42.636;23.294;2023-01-25T04:22:50;111891.03;;;-1.03;100.00
42945;BME280;28584;42.636;23.294;2023-01-25T04:25:15;111897.22;;;-1.04;100.00
42945;BME280;28584;42.636;23.294;2023-01-25T04:27:41;111966.81;;;-1.12;100.00
42945;BME280;28584;42.636;23.294;2023-01-25T04:30:07;111957.78;;;-1.12;100.00
42945;BME280;28584;42.636;23.294;2023-01-25T04:32:35;111772.94;;;-1.12;100.00
42945;BME280;28584;42.636;23.294;2023-01-25T04:35:01;111620.34;;;-1.11;100.00
42945;BME280;28584;42.636;23.294;2023-01-25T04:37:26;111438.34;;;-1.08;100.00
42945;BME280;28584;42.636;23.294;2023-01-25T04:39:52;111269.03;;;-1.02;100.00
42945;BME280;28584;42.636;23.294;2023-01-25T04:42:17;111289.25;;;-1.10;100.00
42945;BME280;28584;42.636;23.294;2023-01-25T04:44:42;111521.50;;;-1.14;100.00
42945;BME280;28584;42.636;23.294;2023-01-25T04:47:08;111227.19;;;-1.13;100.00
42945;BME280;28584;42.636;23.294;2023-01-25T04:49:33;111082.81;;;-1.11;100.00
42945;BME280;28584;42.636;23.294;2023-01-25T04:51:58;111043.22;;;-1.13;100.00
42945;BME280;28584;42.636;23.294;2023-01-25T04:54:24;110966.03;;;-1.13;100.00
42945;BME280;28584;42.636;23.294;2023-01-25T04:56:49;110732.75;;;-1.12;100.00
42945;BME280;28584;42.636;23.294;2023-01-25T04:59:14;110542.56;;;-1.12;100.00
42945;BME280;28584;42.636;23.294;2023-01-25T05:01:40;110335.16;;;-1.16;100.00
42945;BME280;28584;42.636;23.294;2023-01-25T05:04:05;110578.00;;;-1.23;100.00
42945;BME280;28584;42.636;23.294;2023-01-25T05:06:31;110498.88;;;-1.28;100.00
42945;BME280;28584;42.636;23.294;2023-01-25T05:08:56;110432.38;;;-1.31;100.00
42945;BME280;28584;42.636;23.294;2023-01-25T05:11:21;110263.91;;;-1.27;100.00
42945;BME280;28584;42.636;23.294;2023-01-25T05:13:47;110204.66;;;-1.29;100.00
42945;BME280;28584;42.636;23.294;2023-01-25T05:16:12;109937.44;;;-1.26;100.00
42945;BME280;28584;42.636;23.294;2023-01-25T05:18:37;110054.88;;;-1.28;100.00
42945;BME280;28584;42.636;23.294;2023-01-25T05:21:03;109736.53;;;-1.27;100.00
42945;BME280;28584;42.636;23.294;2023-01-25T05:23:28;109548.19;;;-1.27;100.00
42945;BME280;28584;42.636;23.294;2023-01-25T05:25:53;109412.91;;;-1.22;100.00
42945;BME280;28584;42.636;23.294;2023-01-25T05:28:37;109294.50;;;-1.22;100.00
42945;BME280;28584;42.636;23.294;2023-01-25T05:31:03;109210.16;;;-1.24;100.00
42945;BME280;28584;42.636;23.294;2023-01-25T05:33:29;109164.53;;;-1.18;100.00
42945;BME280;28584;42.636;23.294;2023-01-25T05:35:55;109105.25;;;-1.24;100.00
42945;BME280;28584;42.636;23.294;2023-01-25T05:38:20;108944.78;;;-1.22;100.00
42945;BME280;28584;42.636;23.294;2023-01-25T05:40:46;108795.94;;;-1.21;100.00
42945;BME280;28584;42.636;23.294;2023-01-25T05:43:11;108776.22;;;-1.23;100.00
42945;BME280;28584;42.636;23.294;2023-01-25T05:45:36;108643.47;;;-1.25;100.00
42945;BME280;28584;42.636;23.294;2023-01-25T05:48:02;108515.31;;;-1.21;100.00
42945;BME280;28584;42.636;23.294;2023-01-25T05:50:27;108455.22;;;-1.22;100.00
42945;BME280;28584;42.636;23.294;2023-01-25T05:52:53;108329.69;;;-1.20;100.00
42945;BME280;28584;42.636;23.294;2023-01-25T05:55:18;108066.09;;;-1.14;100.00
42945;BME280;28584;42.636;23.294;2023-01-25T05:57:43;107853.59;;;-1.12;100.00
42945;BME280;28584;42.636;23.294;2023-01-25T06:00:10;107659.03;;;-1.10;100.00
42945;BME280;28584;42.636;23.294;2023-01-25T06:02:35;107394.47;;;-1.04;100.00
42945;BME280;28584;42.636;23.294;2023-01-25T06:05:02;107319.09;;;-1.00;100.00
42945;BME280;28584;42.636;23.294;2023-01-25T06:07:27;107300.41;;;-1.06;100.00
42945;BME280;28584;42.636;23.294;2023-01-25T06:09:52;107323.66;;;-1.03;100.00
42945;BME280;28584;42.636;23.294;2023-01-25T06:12:21;107106.66;;;-1.03;100.00
42945;BME280;28584;42.636;23.294;2023-01-25T06:14:46;106970.47;;;-1.05;100.00
42945;BME280;28584;42.636;23.294;2023-01-25T06:17:12;106913.13;;;-1.06;100.00
42945;BME280;28584;42.636;23.294;2023-01-25T06:19:40;107030.72;;;-1.15;100.00
42945;BME280;28584;42.636;23.294;2023-01-25T06:22:05;107310.38;;;-1.15;100.00
42945;BME280;28584;42.636;23.294;2023-01-25T06:24:33;107047.69;;;-1.12;100.00
42945;BME280;28584;42.636;23.294;2023-01-25T06:26:58;107363.34;;;-1.22;100.00
42945;BME280;28584;42.636;23.294;2023-01-25T06:29:24;107023.56;;;-1.16;100.00
42945;BME280;28584;42.636;23.294;2023-01-25T06:31:49;107209.13;;;-1.18;100.00
42945;BME280;28584;42.636;23.294;2023-01-25T06:34:14;107348.97;;;-1.19;100.00
42945;BME280;28584;42.636;23.294;2023-01-25T06:36:41;107056.78;;;-1.19;100.00
42945;BME280;28584;42.636;23.294;2023-01-25T06:39:06;106842.66;;;-1.21;100.00
42945;BME280;28584;42.636;23.294;2023-01-25T06:41:32;106588.84;;;-1.14;100.00
42945;BME280;28584;42.636;23.294;2023-01-25T06:43:57;106737.66;;;-1.17;100.00
42945;BME280;28584;42.636;23.294;2023-01-25T06:46:23;106792.38;;;-1.19;100.00
42945;BME280;28584;42.636;23.294;2023-01-25T06:48:48;106669.53;;;-1.16;100.00
42945;BME280;28584;42.636;23.294;2023-01-25T06:51:14;106544.94;;;-1.15;100.00
42945;BME280;28584;42.636;23.294;2023-01-25T06:53:42;106376.34;;;-1.11;100.00
42945;BME280;28584;42.636;23.294;2023-01-25T06:56:11;106350.34;;;-1.11;100.00
42945;BME280;28584;42.636;23.294;2023-01-25T06:58:37;106145.06;;;-1.10;100.00
42945;BME280;28584;42.636;23.294;2023-01-25T07:01:11;105954.00;;;-1.04;100.00
42945;BME280;28584;42.636;23.294;2023-01-25T07:03:40;105557.44;;;-0.94;100.00
42945;BME280;28584;42.636;23.294;2023-01-25T07:06:07;105642.13;;;-1.04;100.00
42945;BME280;28584;42.636;23.294;2023-01-25T07:08:33;105495.88;;;-1.00;100.00
42945;BME280;28584;42.636;23.294;2023-01-25T07:11:01;105133.47;;;-0.92;100.00
42945;BME280;28584;42.636;23.294;2023-01-25T07:13:28;104987.31;;;-0.91;100.00
42945;BME280;28584;42.636;23.294;2023-01-25T07:15:59;104836.63;;;-0.88;100.00
42945;BME280;28584;42.636;23.294;2023-01-25T07:18:26;104671.41;;;-0.82;100.00
42945;BME280;28584;42.636;23.294;2023-01-25T07:20:52;104500.19;;;-0.82;100.00
42945;BME280;28584;42.636;23.294;2023-01-25T07:23:18;104397.66;;;-0.76;100.00
42945;BME280;28584;42.636;23.294;2023-01-25T07:25:48;104351.75;;;-0.73;100.00
42945;BME280;28584;42.636;23.294;2023-01-25T07:28:15;104065.38;;;-0.66;100.00
42945;BME280;28584;42.636;23.294;2023-01-25T07:30:41;104322.09;;;-0.71;100.00
42945;BME280;28584;42.636;23.294;2023-01-25T07:33:09;104174.66;;;-0.65;100.00
42945;BME280;28584;42.636;23.294;2023-01-25T07:35:35;104026.56;;;-0.62;100.00
42945;BME280;28584;42.636;23.294;2023-01-25T07:38:00;104037.97;;;-0.58;100.00
42945;BME280;28584;42.636;23.294;2023-01-25T07:40:26;103851.13;;;-0.53;100.00
42945;BME280;28584;42.636;23.294;2023-01-25T07:42:51;103944.47;;;-0.55;100.00
42945;BME280;28584;42.636;23.294;2023-01-25T07:45:17;104596.00;;;-0.65;100.00
42945;BME280;28584;42.636;23.294;2023-01-25T07:47:43;104706.34;;;-0.67;100.00
42945;BME280;28584;42.636;23.294;2023-01-25T07:50:09;104373.06;;;-0.56;100.00
42945;BME280;28584;42.636;23.294;2023-01-25T07:52:35;104107.34;;;-0.51;100.00
42945;BME280;28584;42.636;23.294;2023-01-25T07:55:00;104136.09;;;-0.51;100.00
42945;BME280;28584;42.636;23.294;2023-01-25T07:57:26;104031.53;;;-0.43;100.00
42945;BME280;28584;42.636;23.294;2023-01-25T07:59:53;103893.03;;;-0.38;100.00
42945;BME280;28584;42.636;23.294;2023-01-25T08:02:18;103951.38;;;-0.38;100.00
42945;BME280;28584;42.636;23.294;2023-01-25T08:04:44;103852.25;;;-0.32;100.00
42945;BME280;28584;42.636;23.294;2023-01-25T08:07:10;104083.81;;;-0.35;100.00
42945;BME280;28584;42.636;23.294;2023-01-25T08:09:35;104483.44;;;-0.43;100.00
42945;BME280;28584;42.636;23.294;2023-01-25T08:12:00;104336.81;;;-0.36;100.00
42945;BME280;28584;42.636;23.294;2023-01-25T08:14:26;104415.59;;;-0.34;100.00
42945;BME280;28584;42.636;23.294;2023-01-25T08:16:51;104657.84;;;-0.36;100.00
42945;BME280;28584;42.636;23.294;2023-01-25T08:19:17;104577.13;;;-0.36;100.00
42945;BME280;28584;42.636;23.294;2023-01-25T08:21:44;104734.50;;;-0.43;100.00
42945;BME280;28584;42.636;23.294;2023-01-25T08:24:09;104443.97;;;-0.43;100.00
42945;BME280;28584;42.636;23.294;2023-01-25T08:26:36;104290.00;;;-0.34;100.00
42945;BME280;28584;42.636;23.294;2023-01-25T08:29:05;104141.41;;;-0.37;100.00
42945;BME280;28584;42.636;23.294;2023-01-25T08:31:33;103727.63;;;-0.32;100.00
42945;BME280;28584;42.636;23.294;2023-01-25T08:33:59;103291.97;;;-0.23;100.00
42945;BME280;28584;42.636;23.294;2023-01-25T08:36:25;103231.94;;;-0.23;100.00
42945;BME280;28584;42.636;23.294;2023-01-25T08:38:54;103178.03;;;-0.22;100.00
42945;BME280;28584;42.636;23.294;2023-01-25T08:41:20;102900.41;;;-0.16;100.00
42945;BME280;28584;42.636;23.294;2023-01-25T08:43:46;102535.53;;;-0.07;100.00
42945;BME280;28584;42.636;23.294;2023-01-25T08:46:13;102622.91;;;-0.02;100.00
42945;BME280;28584;42.636;23.294;2023-01-25T08:48:39;102658.56;;;0.00;100.00
42945;BME280;28584;42.636;23.294;2023-01-25T08:51:07;102511.69;;;0.08;100.00
42945;BME280;28584;42.636;23.294;2023-01-25T08:53:33;102599.66;;;0.07;100.00
42945;BME280;28584;42.636;23.294;2023-01-25T08:56:06;102901.88;;;0.08;100.00
42945;BME280;28584;42.636;23.294;2023-01-25T08:58:32;103210.06;;;0.02;100.00
42945;BME280;28584;42.636;23.294;2023-01-25T09:01:03;103088.72;;;0.05;100.00
42945;BME280;28584;42.636;23.294;2023-01-25T09:03:30;103022.00;;;0.08;100.00
42945;BME280;28584;42.636;23.294;2023-01-25T09:05:56;102932.50;;;0.07;100.00
42945;BME280;28584;42.636;23.294;2023-01-25T09:08:21;103268.50;;;0.11;100.00
42945;BME280;28584;42.636;23.294;2023-01-25T09:10:46;103356.47;;;0.11;100.00
42945;BME280;28584;42.636;23.294;2023-01-25T09:13:12;103284.00;;;0.19;100.00
42945;BME280;28584;42.636;23.294;2023-01-25T09:15:39;103103.72;;;0.28;100.00
42945;BME280;28584;42.636;23.294;2023-01-25T09:18:04;103892.31;;;0.20;100.00
42945;BME280;28584;42.636;23.294;2023-01-25T09:20:30;103792.88;;;0.30;100.00
42945;BME280;28584;42.636;23.294;2023-01-25T09:22:55;103488.22;;;0.45;100.00
42945;BME280;28584;42.636;23.294;2023-01-25T09:25:21;103955.78;;;0.48;100.00
42945;BME280;28584;42.636;23.294;2023-01-25T09:27:50;104512.44;;;0.49;100.00
42945;BME280;28584;42.636;23.294;2023-01-25T09:30:16;105329.03;;;0.46;100.00
42945;BME280;28584;42.636;23.294;2023-01-25T09:32:42;106513.31;;;0.40;100.00
42945;BME280;28584;42.636;23.294;2023-01-25T09:35:07;107109.75;;;0.47;100.00
42945;BME280;28584;42.636;23.294;2023-01-25T09:37:33;107726.28;;;0.52;100.00
42945;BME280;28584;42.636;23.294;2023-01-25T09:39:58;108345.69;;;0.58;100.00
42945;BME280;28584;42.636;23.294;2023-01-25T09:42:46;109532.81;;;0.58;100.00
42945;BME280;28584;42.636;23.294;2023-01-25T09:45:15;110392.47;;;0.47;100.00
42945;BME280;28584;42.636;23.294;2023-01-25T09:48:07;110196.44;;;0.49;100.00
42945;BME280;28584;42.636;23.294;2023-01-25T09:50:39;109127.13;;;0.56;100.00
42945;BME280;28584;42.636;23.294;2023-01-25T09:53:20;109376.22;;;0.52;100.00
42945;BME280;28584;42.636;23.294;2023-01-25T09:55:53;109290.69;;;0.43;100.00
42945;BME280;28584;42.636;23.294;2023-01-25T09:58:49;108592.97;;;0.38;100.00
42945;BME280;28584;42.636;23.294;2023-01-25T10:01:19;107713.81;;;0.44;100.00
42945;BME280;28584;42.636;23.294;2023-01-25T10:04:17;106707.91;;;0.51;100.00
42945;BME280;28584;42.636;23.294;2023-01-25T10:06:47;106436.44;;;0.55;100.00
42945;BME280;28584;42.636;23.294;2023-01-25T10:11:51;106095.31;;;0.68;100.00
42945;BME280;28584;42.636;23.294;2023-01-25T10:14:18;105972.97;;;0.70;100.00
42945;BME280;28584;42.636;23.294;2023-01-25T10:19:22;105976.34;;;0.75;100.00
42945;BME280;28584;42.636;23.294;2023-01-25T10:27:34;107308.22;;;0.54;100.00
42945;BME280;28584;42.636;23.294;2023-01-25T10:30:27;106310.31;;;0.63;100.00
42945;BME280;28584;42.636;23.294;2023-01-25T10:33:00;106467.69;;;0.60;100.00
42945;BME280;28584;42.636;23.294;2023-01-25T10:35:30;106643.97;;;0.56;100.00
42945;BME280;28584;42.636;23.294;2023-01-25T10:38:05;106328.47;;;0.58;100.00
42945;BME280;28584;42.636;23.294;2023-01-25T10:40:40;105859.94;;;0.66;100.00
42945;BME280;28584;42.636;23.294;2023-01-25T10:43:20;106457.75;;;0.61;100.00
42945;BME280;28584;42.636;23.294;2023-01-25T10:45:47;107284.88;;;0.53;100.00
42945;BME280;28584;42.636;23.294;2023-01-25T10:48:17;107681.28;;;0.53;100.00
42945;BME280;28584;42.636;23.294;2023-01-25T10:50:46;108396.94;;;0.52;100.00
42945;BME280;28584;42.636;23.294;2023-01-25T10:53:34;108320.47;;;0.59;100.00
42945;BME280;28584;42.636;23.294;2023-01-25T10:58:40;109060.63;;;0.67;100.00
42945;BME280;28584;42.636;23.294;2023-01-25T11:01:12;109187.53;;;0.73;100.00
42945;BME280;28584;42.636;23.294;2023-01-25T11:03:41;110484.91;;;0.69;100.00
42945;BME280;28584;42.636;23.294;2023-01-25T11:06:09;111600.22;;;0.72;100.00
42945;BME280;28584;42.636;23.294;2023-01-25T11:08:39;113703.47;;;0.79;100.00
42945;BME280;28584;42.636;23.294;2023-01-25T11:13:40;118064.31;;;0.71;100.00
42945;BME280;28584;42.636;23.294;2023-01-25T11:16:35;119965.78;;;0.75;100.00
42945;BME280;28584;42.636;23.294;2023-01-25T11:19:04;122651.72;;;0.76;100.00
42945;BME280;28584;42.636;23.294;2023-01-25T11:21:52;125557.56;;;0.80;100.00
42945;BME280;28584;42.636;23.294;2023-01-25T11:24:18;128419.06;;;0.81;100.00
42945;BME280;28584;42.636;23.294;2023-01-25T11:26:44;131580.59;;;0.74;100.00
42945;BME280;28584;42.636;23.294;2023-01-25T11:29:18;135150.47;;;0.76;100.00
42945;BME280;28584;42.636;23.294;2023-01-25T11:31:52;136399.81;;;0.76;100.00
42945;BME280;28584;42.636;23.294;2023-01-25T11:34:20;139009.69;;;0.72;100.00
42945;BME280;28584;42.636;23.294;2023-01-25T11:37:19;141241.56;;;0.81;100.00
42945;BME280;28584;42.636;23.294;2023-01-25T11:51:05;153555.28;;;0.90;100.00
42945;BME280;28584;42.636;23.294;2023-01-25T11:58:56;158803.53;;;0.92;100.00
42945;BME280;28584;42.636;23.294;2023-01-25T12:01:40;158822.06;;;0.99;100.00
42945;BME280;28584;42.636;23.294;2023-01-25T12:04:40;158836.69;;;1.04;100.00
42945;BME280;28584;42.636;23.294;2023-01-25T12:15:33;158840.63;;;1.06;100.00
42945;BME280;28584;42.636;23.294;2023-01-25T12:26:00;158804.88;;;0.92;100.00
42945;BME280;28584;42.636;23.294;2023-01-25T12:28:35;158795.59;;;0.89;100.00
42945;BME280;28584;42.636;23.294;2023-01-25T12:33:47;158781.00;;;0.83;100.00
42945;BME280;28584;42.636;23.294;2023-01-25T12:39:03;158782.34;;;0.84;100.00
42945;BME280;28584;42.636;23.294;2023-01-25T12:41:57;158774.38;;;0.81;100.00
42945;BME280;28584;42.636;23.294;2023-01-25T12:44:33;158773.06;;;0.80;100.00
42945;BME280;28584;42.636;23.294;2023-01-25T12:47:10;158755.81;;;0.74;100.00
42945;BME280;28584;42.636;23.294;2023-01-25T12:49:59;158778.34;;;0.82;100.00
42945;BME280;28584;42.636;23.294;2023-01-25T12:52:37;158766.41;;;0.78;100.00
42945;BME280;28584;42.636;23.294;2023-01-25T12:55:12;158762.44;;;0.76;100.00
42945;BME280;28584;42.636;23.294;2023-01-25T13:09:00;158739.94;;;0.68;100.00
42945;BME280;28584;42.636;23.294;2023-01-25T13:11:37;158753.19;;;0.73;100.00
42945;BME280;28584;42.636;23.294;2023-01-25T13:16:52;158702.81;;;0.54;100.00
42945;BME280;28584;42.636;23.294;2023-01-25T13:21:55;158673.66;;;0.43;100.00
42945;BME280;28584;42.636;23.294;2023-01-25T13:24:34;158686.94;;;0.48;100.00
42945;BME280;28584;42.636;23.294;2023-01-25T13:27:25;158708.13;;;0.56;100.00
42945;BME280;28584;42.636;23.294;2023-01-25T13:32:53;158725.34;;;0.62;100.00
42945;BME280;28584;42.636;23.294;2023-01-25T13:35:26;158732.00;;;0.65;100.00
42945;BME280;28584;42.636;23.294;2023-01-25T13:38:00;158717.44;;;0.59;100.00
42945;BME280;28584;42.636;23.294;2023-01-25T13:40:30;158714.75;;;0.58;100.00
42945;BME280;28584;42.636;23.294;2023-01-25T13:45:39;158684.25;;;0.47;100.00
42945;BME280;28584;42.636;23.294;2023-01-25T13:48:15;158700.16;;;0.53;100.00
42945;BME280;28584;42.636;23.294;2023-01-25T13:50:59;158701.50;;;0.53;100.00
42945;BME280;28584;42.636;23.294;2023-01-25T13:53:27;158686.94;;;0.48;100.00
42945;BME280;28584;42.636;23.294;2023-01-25T13:56:00;158657.81;;;0.37;100.00
42945;BME280;28584;42.636;23.294;2023-01-25T13:58:31;158648.50;;;0.33;100.00